Time;durP1;ratioP1;P1;durP2;ratioP2;P2;SDS_P1;SDS_P2;PMS_P1;PMS_P2;Temp;Humidity;BMP_temperature;BMP_pressure;BME280_temperature;BME280_humidity;BME280_pressure;Samples;Min_cycle;Max_cycle;Signal;HPM_P1;HPM_P2
2021/01/21 00:02:01;;;;;;;49.93;26.93;;;;;;;-6.45;72.39;100714.63;1607589;87;21237;-95
2021/01/21 00:08:21;;;;;;;51.60;29.10;;;;;;;-6.48;72.65;100697.89;1693433;82;21245;-87
2021/01/21 00:10:48;;;;;;;50.70;26.97;;;;;;;-6.46;72.63;100696.94;1684862;85;21204;-87
2021/01/21 00:13:15;;;;;;;51.83;27.80;;;;;;;-6.46;72.69;100717.69;1709280;83;21579;-88
2021/01/21 00:15:42;;;;;;;54.87;28.50;;;;;;;-6.33;72.42;100692.45;1700995;83;21247;-88
2021/01/21 00:18:09;;;;;;;50.57;25.70;;;;;;;-6.25;72.27;100704.64;1699929;83;21298;-93
2021/01/21 00:20:37;;;;;;;52.13;27.37;;;;;;;-6.29;72.24;100706.53;1696582;83;21192;-90
2021/01/21 00:23:04;;;;;;;49.37;27.87;;;;;;;-6.20;72.01;100723.41;1707180;83;21065;-90
2021/01/21 00:25:33;;;;;;;48.50;27.90;;;;;;;-6.21;72.10;100705.34;1692418;83;21105;-88
2021/01/21 00:28:00;;;;;;;50.70;27.93;;;;;;;-6.20;72.04;100703.11;1697278;84;21351;-88
2021/01/21 00:30:30;;;;;;;51.17;25.90;;;;;;;-6.16;71.93;100700.31;1697877;84;21624;-91
2021/01/21 00:32:57;;;;;;;44.33;24.90;;;;;;;-6.12;71.87;100699.25;1686874;84;21154;-92
2021/01/21 00:35:30;;;;;;;45.30;23.13;;;;;;;-6.09;71.73;100704.27;1717825;83;21656;-91
2021/01/21 00:38:01;;;;;;;51.47;29.37;;;;;;;-6.08;71.60;100708.56;1704448;83;21525;-92
2021/01/21 00:40:30;;;;;;;49.17;24.27;;;;;;;-6.04;71.58;100707.97;1702440;83;21196;-93
2021/01/21 00:42:59;;;;;;;50.27;27.93;;;;;;;-6.02;71.51;100713.92;1700324;83;21203;-90
2021/01/21 00:45:27;;;;;;;43.23;24.53;;;;;;;-5.99;71.53;100699.95;1688222;82;21256;-91
2021/01/21 00:47:54;;;;;;;47.80;26.50;;;;;;;-5.98;71.36;100695.16;1656105;86;21307;-93
2021/01/21 00:50:24;;;;;;;50.37;26.53;;;;;;;-5.97;71.30;100692.92;1644156;87;21219;-91
2021/01/21 00:52:52;;;;;;;43.47;24.40;;;;;;;-5.98;71.42;100695.98;1637499;87;21229;-91
2021/01/21 00:55:20;;;;;;;44.87;25.00;;;;;;;-6.00;71.52;100696.52;1608466;86;21177;-90
2021/01/21 00:57:47;;;;;;;50.53;26.67;;;;;;;-5.98;71.54;100689.50;1659760;85;21192;-91
2021/01/21 01:00:17;;;;;;;;;;;;;;;-5.96;71.50;100685.53;1681376;83;21346;-90
2021/01/21 01:02:47;;;;;;;49.93;26.00;;;;;;;-5.97;71.59;100677.35;1683040;83;20292;-96
2021/01/21 01:05:31;;;;;;;47.93;26.33;;;;;;;-5.94;71.55;100690.16;1701338;82;21141;-96
2021/01/21 01:08:30;;;;;;;59.57;28.63;;;;;;;-5.97;71.67;100692.92;1677762;83;21554;-95
2021/01/21 01:11:16;;;;;;;47.90;24.00;;;;;;;-5.92;71.57;100677.94;1696822;82;21250;-96
2021/01/21 01:13:53;;;;;;;49.57;25.73;;;;;;;-5.91;71.53;100682.23;1681614;82;21130;-91
2021/01/21 01:16:52;;;;;;;49.43;26.07;;;;;;;-5.90;71.54;100679.54;1651598;84;21287;-94
2021/01/21 01:19:48;;;;;;;46.60;25.57;;;;;;;-5.86;71.45;100680.23;1688996;83;21719;-92
2021/01/21 01:22:17;;;;;;;48.03;27.40;;;;;;;-5.89;71.58;100676.04;1682672;85;21172;-91
2021/01/21 01:24:46;;;;;;;45.00;23.57;;;;;;;-5.82;71.47;100668.81;1673306;85;21483;-90
2021/01/21 01:27:15;;;;;;;41.13;24.80;;;;;;;-5.80;71.36;100663.52;1668263;84;21182;-87
2021/01/21 01:29:45;;;;;;;42.03;22.33;;;;;;;-5.75;71.31;100668.86;1664324;85;21143;-90
2021/01/21 01:32:15;;;;;;;53.00;27.27;;;;;;;-5.72;71.12;100660.10;1650959;85;21150;-85
2021/01/21 01:34:44;;;;;;;50.27;30.90;;;;;;;-5.74;71.23;100662.77;1681492;84;21577;-86
2021/01/21 01:37:13;;;;;;;49.00;26.73;;;;;;;-5.72;71.12;100666.12;1695943;84;21302;-87
2021/01/21 01:39:41;;;;;;;47.90;27.77;;;;;;;-5.69;71.13;100663.83;1705813;83;21144;-87
2021/01/21 01:42:13;;;;;;;43.57;25.43;;;;;;;-5.65;71.09;100658.89;1704712;83;21168;-87
2021/01/21 01:44:42;;;;;;;45.77;22.33;;;;;;;-5.65;70.92;100657.59;1693199;84;21096;-87
2021/01/21 01:47:09;;;;;;;42.60;23.77;;;;;;;-5.61;70.88;100655.22;1672267;85;21339;-85
2021/01/21 01:49:40;;;;;;;47.90;26.97;;;;;;;-5.69;70.99;100656.90;1648699;86;21817;-87
2021/01/21 01:52:07;;;;;;;42.97;23.17;;;;;;;-5.68;71.16;100636.95;1699206;84;21216;-87
2021/01/21 01:54:34;;;;;;;49.87;26.60;;;;;;;-5.62;71.09;100641.00;1694683;84;21198;-88
2021/01/21 01:57:05;;;;;;;50.33;26.93;;;;;;;-5.67;71.16;100621.73;1692835;83;21068;-87
2021/01/21 01:59:37;;;;;;;44.17;24.00;;;;;;;-5.67;71.26;100628.23;1703419;84;21139;-88
2021/01/21 02:02:04;;;;;;;45.30;26.57;;;;;;;-5.63;71.25;100630.22;1672283;84;21098;-87
2021/01/21 02:04:33;;;;;;;40.40;21.53;;;;;;;-5.63;71.26;100628.91;1675459;84;21417;-90
2021/01/21 02:07:05;;;;;;;50.93;27.77;;;;;;;-5.57;71.19;100626.03;1665951;85;21165;-87
2021/01/21 02:09:34;;;;;;;44.20;24.77;;;;;;;-5.58;71.22;100638.16;1660239;85;21240;-87
2021/01/21 02:12:16;;;;;;;49.57;25.80;;;;;;;-5.53;71.15;100638.77;1645971;87;21272;-86
2021/01/21 02:15:08;;;;;;;51.47;27.80;;;;;;;-5.62;71.36;100633.21;1633163;87;21201;-87
2021/01/21 02:18:06;;;;;;;40.13;23.87;;;;;;;-5.49;71.24;100627.77;1807307;77;23091;-87
2021/01/21 02:20:46;;;;;;;;;;;;;;;-5.57;71.39;100615.17;1748787;80;21183;-86
2021/01/21 02:23:41;;;;;;;44.03;22.53;;;;;;;-5.54;71.40;100614.17;1725771;80;20178;-94
2021/01/21 02:26:24;;;;;;;45.87;24.93;;;;;;;-5.55;71.53;100619.00;1685903;83;22488;-93
2021/01/21 02:29:21;;;;;;;44.37;26.20;;;;;;;-5.47;71.49;100618.14;1696741;83;21204;-96
2021/01/21 02:32:29;;;;;;;36.37;22.20;;;;;;;-5.49;71.57;100627.77;1691087;83;21201;-95
2021/01/21 02:35:17;;;;;;;39.83;23.87;;;;;;;-5.54;71.74;100619.36;1705665;83;21373;-92
2021/01/21 02:37:54;;;;;;;45.17;24.23;;;;;;;-5.42;71.61;100621.34;1718301;83;21183;-95
2021/01/21 02:40:25;;;;;;;39.37;22.67;;;;;;;-5.40;71.66;100616.91;1719033;83;21296;-94
2021/01/21 02:43:14;;;;;;;46.40;21.53;;;;;;;-5.44;72.01;100621.89;1701840;82;21197;-88
2021/01/21 02:45:50;;;;;;;42.60;22.73;;;;;;;-5.39;72.04;100605.58;1772593;77;23076;-89
2021/01/21 02:48:18;;;;;;;39.87;23.20;;;;;;;-5.45;72.21;100618.06;1752733;81;21612;-88
2021/01/21 02:51:04;;;;;;;46.53;25.60;;;;;;;-5.44;72.25;100608.90;1711909;83;21211;-89
2021/01/21 02:53:33;;;;;;;42.20;22.20;;;;;;;-5.48;72.29;100609.98;1691152;83;21228;-90
2021/01/21 02:56:01;;;;;;;40.30;22.73;;;;;;;-5.43;72.20;100597.57;1700118;79;21108;-88
2021/01/21 02:58:36;;;;;;;41.40;22.07;;;;;;;-5.37;72.15;100597.71;1692833;83;21213;-86
2021/01/21 03:01:05;;;;;;;42.67;25.30;;;;;;;-5.31;72.10;100591.75;1711385;82;21230;-88
2021/01/21 03:03:32;;;;;;;39.53;23.03;;;;;;;-5.26;71.93;100588.89;1690550;85;21157;-89
2021/01/21 03:06:02;;;;;;;39.27;21.60;;;;;;;-5.24;71.87;100596.61;1694528;80;21193;-88
2021/01/21 03:08:33;;;;;;;43.47;22.90;;;;;;;-5.29;72.04;100595.10;1720809;80;21144;-89
2021/01/21 03:18:40;;;;;;;41.90;23.13;;;;;;;-5.21;72.13;100584.77;1657789;81;21185;-89
2021/01/21 03:21:10;;;;;;;43.60;25.07;;;;;;;-5.17;72.11;100574.59;1665589;83;21157;-91
2021/01/21 03:23:45;;;;;;;37.10;20.67;;;;;;;-6.21;71.91;100400.00;1649643;81;21138;-91
2021/01/21 03:26:14;;;;;;;41.23;22.90;;;;;;;-5.09;71.98;100589.30;1622966;86;21234;-90
2021/01/21 03:28:44;;;;;;;38.70;22.10;;;;;;;-5.04;71.97;100592.50;1627959;86;21242;-93
2021/01/21 03:31:12;;;;;;;36.27;21.20;;;;;;;-4.99;71.81;100593.54;1638315;86;21162;-91
2021/01/21 03:33:47;;;;;;;42.77;25.07;;;;;;;-4.96;71.74;100586.42;1653156;84;21117;-95
2021/01/21 03:36:40;;;;;;;39.97;21.13;;;;;;;-4.93;71.63;100580.23;1673204;84;21152;-91
2021/01/21 03:39:40;;;;;;;37.20;21.73;;;;;;;-4.95;71.79;100587.28;1681677;82;21167;-95
2021/01/21 03:42:44;;;;;;;39.37;21.37;;;;;;;-4.84;71.76;100582.77;1759340;77;24271;-93
2021/01/21 03:45:21;;;;;;;43.80;25.60;;;;;;;-4.92;71.85;100589.23;1703229;79;21084;-83
2021/01/21 03:47:48;;;;;;;43.90;25.80;;;;;;;-4.86;71.86;100580.72;1669087;84;21649;-85
2021/01/21 03:50:17;;;;;;;38.23;22.07;;;;;;;-4.99;72.27;100588.34;1670490;84;21199;-86
2021/01/21 03:52:46;;;;;;;42.50;22.50;;;;;;;-4.93;72.20;100572.44;1669358;84;21360;-85
2021/01/21 03:55:17;;;;;;;45.00;24.23;;;;;;;-4.92;72.24;100575.39;1682417;82;21190;-85
2021/01/21 03:57:46;;;;;;;36.03;22.10;;;;;;;-4.84;72.10;100564.58;1688203;83;21182;-86
2021/01/21 04:00:34;;;;;;;43.87;24.83;;;;;;;-4.81;72.15;100565.72;1798770;76;22875;-87
2021/01/21 04:03:02;;;;;;;41.17;19.73;;;;;;;-4.79;72.03;100562.57;1760960;81;21306;-87
2021/01/21 04:05:39;;;;;;;40.08;29.12;;;;;;;-4.73;72.02;100563.52;1746900;79;28197;-86
2021/01/21 04:08:08;;;;;;;41.57;24.77;;;;;;;-4.58;71.58;100560.06;1744627;80;21173;-85
2021/01/21 04:10:37;;;;;;;42.20;24.47;;;;;;;-4.44;71.08;100564.98;1758805;80;21473;-84
2021/01/21 04:13:15;;;;;;;41.60;25.20;;;;;;;-4.41;71.06;100560.89;1716974;79;22977;-85
2021/01/21 04:15:45;;;;;;;42.67;26.20;;;;;;;-4.58;71.56;100560.06;1693126;84;21741;-86
2021/01/21 04:18:15;;;;;;;39.70;23.53;;;;;;;-4.55;71.50;100556.00;1685901;84;21210;-85
2021/01/21 04:20:57;;;;;;;39.87;26.30;;;;;;;-4.62;71.81;100550.76;1683242;84;21212;-86
2021/01/21 04:23:23;;;;;;;;;;;;;;;-4.56;71.82;100568.65;1665409;84;22018;-85
2021/01/21 04:25:50;;;;;;;42.47;23.90;;;;;;;-4.63;72.07;100555.60;1682805;83;20229;-86
2021/01/21 04:28:19;;;;;;;37.70;22.20;;;;;;;-4.61;72.19;100555.52;1678521;84;21172;-85
2021/01/21 04:30:46;;;;;;;42.80;20.73;;;;;;;-4.59;72.21;100547.17;1684534;84;21306;-85
2021/01/21 04:33:13;;;;;;;;;;;;;;;-4.59;72.23;100554.97;1670249;83;21229;-85
2021/01/21 04:35:42;;;;;;;42.60;22.90;;;;;;;-4.61;72.43;100557.66;1682806;84;20280;-85
2021/01/21 04:38:11;;;;;;;46.80;25.13;;;;;;;-4.59;72.39;100562.31;1685385;84;21175;-87
2021/01/21 04:40:51;;;;;;;44.73;26.20;;;;;;;-4.53;72.51;100556.75;1812323;77;23013;-86
2021/01/21 04:43:47;;;;;;;43.00;24.27;;;;;;;-4.56;72.51;100561.28;1788731;78;22245;-85
2021/01/21 04:46:39;;;;;;;43.93;24.47;;;;;;;-4.58;72.81;100552.26;1841267;76;23056;-85
2021/01/21 04:49:07;;;;;;;48.00;24.60;;;;;;;-4.64;72.96;100557.81;1792822;77;21152;-82
2021/01/21 04:51:37;;;;;;;43.57;24.83;;;;;;;-4.63;73.00;100556.91;1772373;77;21629;-85
2021/01/21 04:54:26;;;;;;;47.10;25.67;;;;;;;-4.59;73.14;100553.67;1828957;77;23487;-84
2021/01/21 04:57:00;;;;;;;41.80;24.77;;;;;;;-4.60;73.06;100564.52;1771504;77;21216;-86
2021/01/21 04:59:36;;;;;;;43.23;24.57;;;;;;;-4.57;73.09;100560.45;1595031;83;21747;-83
2021/01/21 05:02:04;;;;;;;42.63;23.67;;;;;;;-4.59;73.20;100549.77;1672014;84;22263;-81
2021/01/21 05:04:32;;;;;;;49.20;27.73;;;;;;;-4.58;73.30;100561.36;1646314;82;21159;-88
2021/01/21 05:07:12;;;;;;;49.03;24.10;;;;;;;-4.53;73.17;100554.15;1678535;80;21155;-88
2021/01/21 05:09:39;;;;;;;42.93;25.43;;;;;;;-4.51;73.24;100555.37;1676406;84;21321;-87
2021/01/21 05:12:08;;;;;;;42.40;24.07;;;;;;;-4.51;73.37;100559.27;1665645;83;21144;-88
2021/01/21 05:15:42;;;;;;;42.43;22.23;;;;;;;-4.52;73.63;100544.57;1858183;76;23698;-85
2021/01/21 05:18:29;;;;;;;46.60;26.87;;;;;;;-4.50;73.53;100547.48;1757628;79;21623;-91
2021/01/21 05:21:05;;;;;;;41.90;21.97;;;;;;;-4.40;73.25;100567.31;1771601;80;21180;-89
2021/01/21 05:23:46;;;;;;;37.07;22.03;;;;;;;-4.41;73.32;100555.21;1721686;79;21079;-89
2021/01/21 05:26:15;;;;;;;43.83;25.70;;;;;;;-4.40;73.28;100560.81;1742628;81;21343;-89
2021/01/21 05:28:48;;;;;;;48.13;25.73;;;;;;;-4.35;73.16;100564.44;1702393;82;21306;-89
2021/01/21 05:31:18;;;;;;;41.73;24.60;;;;;;;-4.40;73.39;100564.71;1705118;82;21931;-89
2021/01/21 05:33:48;;;;;;;49.47;27.00;;;;;;;-4.30;73.12;100572.36;1732819;81;21070;-88
2021/01/21 05:36:18;;;;;;;42.40;24.70;;;;;;;-4.29;73.12;100566.71;1720414;82;21160;-88
2021/01/21 05:39:06;;;;;;;41.37;24.90;;;;;;;-4.21;73.03;100571.00;1785384;79;22955;-89
2021/01/21 05:41:53;;;;;;;39.53;22.77;;;;;;;-4.24;73.01;100569.87;1785340;80;21164;-88
2021/01/21 05:44:22;;;;;;;46.47;23.13;;;;;;;-4.17;72.89;100574.27;1774545;80;21594;-89
2021/01/21 05:46:54;;;;;;;42.87;23.77;;;;;;;-4.20;72.96;100578.34;1712871;82;21293;-89
2021/01/21 05:49:27;;;;;;;41.67;23.93;;;;;;;-4.16;72.87;100575.49;1668089;82;21181;-88
2021/01/21 05:51:57;;;;;;;44.83;24.93;;;;;;;-4.13;72.79;100580.98;1670130;84;21323;-88
2021/01/21 05:54:25;;;;;;;42.67;23.73;;;;;;;-4.10;72.74;100582.11;1680683;84;22609;-88
2021/01/21 05:57:01;;;;;;;40.03;22.33;;;;;;;-4.09;72.71;100592.05;1656792;82;21126;-88
2021/01/21 05:59:31;;;;;;;41.20;20.90;;;;;;;-4.06;72.70;100599.23;1633517;86;21245;-90
2021/01/21 06:02:30;;;;;;;45.55;33.35;;;;;;;-4.09;72.85;100580.34;1746557;78;28661;-89
2021/01/21 06:05:00;;;;;;;43.43;28.03;;;;;;;-3.97;72.47;100593.50;1748597;80;21759;-88
2021/01/21 06:07:31;;;;;;;44.63;25.07;;;;;;;-3.78;71.88;100576.33;1715139;81;21223;-86
2021/01/21 06:09:59;;;;;;;49.13;26.03;;;;;;;-3.79;71.78;100587.66;1716345;82;21203;-87
2021/01/21 06:12:28;;;;;;;39.63;22.23;;;;;;;-3.83;71.86;100583.56;1695382;83;21120;-91
2021/01/21 06:15:01;;;;;;;41.37;24.67;;;;;;;-3.78;71.86;100584.14;1721673;81;21611;-90
2021/01/21 06:17:28;;;;;;;44.13;25.00;;;;;;;-3.81;71.95;100581.70;1728976;81;21627;-88
2021/01/21 06:20:27;;;;;;;40.10;22.27;;;;;;;-3.72;71.84;100574.66;1810700;78;22988;-86
2021/01/21 06:23:03;;;;;;;47.77;25.90;;;;;;;-3.81;72.07;100595.20;1740178;80;21172;-87
2021/01/21 06:25:35;;;;;;;47.43;26.93;;;;;;;-3.82;72.10;100587.86;1728815;81;21215;-88
2021/01/21 06:28:03;;;;;;;46.53;25.60;;;;;;;-3.76;72.08;100593.17;1717863;82;22269;-85
2021/01/21 06:30:33;;;;;;;43.23;23.43;;;;;;;-3.77;72.13;100601.91;1703851;83;21186;-88
2021/01/21 06:33:07;;;;;;;44.33;25.50;;;;;;;-3.73;72.01;100591.67;1699167;82;21275;-85
2021/01/21 06:35:48;;;;;;;51.03;27.37;;;;;;;-3.73;72.10;100582.11;1717696;83;21151;-88
2021/01/21 06:38:22;;;;;;;49.27;25.50;;;;;;;-3.74;72.15;100590.02;1639170;86;21288;-88
2021/01/21 06:41:18;;;;;;;47.57;27.03;;;;;;;-3.72;72.21;100587.68;1660579;84;21226;-92
2021/01/21 06:44:10;;;;;;;48.13;26.70;;;;;;;-3.63;72.14;100582.40;1707653;82;21288;-90
2021/01/21 06:47:19;;;;;;;46.37;25.13;;;;;;;-3.62;72.19;100583.23;1645887;85;21277;-89
2021/01/21 06:50:13;;;;;;;56.00;28.30;;;;;;;-3.51;71.93;100591.25;1696365;83;21323;-91
2021/01/21 06:53:14;;;;;;;41.40;22.87;;;;;;;-3.53;72.03;100587.89;1694215;83;21309;-90
2021/01/21 06:55:50;;;;;;;48.77;27.43;;;;;;;-3.48;71.88;100589.77;1661232;85;21161;-89
2021/01/21 06:58:56;;;;;;;51.23;25.10;;;;;;;-3.52;72.13;100581.77;1621656;87;21175;-90
2021/01/21 07:01:42;;;;;;;52.17;27.10;;;;;;;-3.46;72.05;100581.39;1665846;84;21135;-87
2021/01/21 07:04:24;;;;;;;52.53;26.53;;;;;;;-3.47;72.19;100573.66;1666592;84;21211;-88
2021/01/21 07:09:41;;;;;;;51.03;26.80;;;;;;;-3.37;72.16;100580.84;1800109;77;23090;-86
2021/01/21 07:12:14;;;;;;;52.27;28.63;;;;;;;-3.42;72.22;100586.78;1760042;80;21462;-87
2021/01/21 07:14:43;;;;;;;47.40;26.70;;;;;;;-3.36;72.14;100573.84;1752578;81;21149;-86
2021/01/21 07:17:11;;;;;;;46.27;26.93;;;;;;;-3.34;72.10;100576.72;1675875;84;21250;-87
2021/01/21 07:19:44;;;;;;;52.53;29.40;;;;;;;-3.23;71.92;100567.43;1712616;82;21743;-85
2021/01/21 07:22:16;;;;;;;50.17;31.63;;;;;;;-3.28;72.06;100565.09;1703063;82;21147;-86
2021/01/21 07:24:49;;;;;;;51.90;27.27;;;;;;;-3.12;71.81;100571.52;1729453;81;21163;-85
2021/01/21 07:27:32;;;;;;;51.67;30.23;;;;;;;-3.17;71.82;100568.34;1717632;81;21198;-85
2021/01/21 07:30:22;;;;;;;45.77;26.93;;;;;;;-3.10;71.76;100558.39;1689361;83;21302;-85
2021/01/21 07:32:49;;;;;;;48.67;28.07;;;;;;;-3.05;71.69;100555.87;1705863;82;21474;-85
2021/01/21 07:35:36;;;;;;;51.97;29.33;;;;;;;-2.99;71.72;100551.56;1705172;82;21072;-85
2021/01/21 07:38:04;;;;;;;52.78;28.35;;;;;;;-2.91;71.53;100543.26;1700098;83;21182;-85
2021/01/21 07:40:43;;;;;;;53.10;30.13;;;;;;;-2.85;71.23;100550.69;1697532;83;21169;-83
2021/01/21 07:43:16;;;;;;;57.43;29.97;;;;;;;-2.85;71.31;100549.38;1689177;83;21199;-84
2021/01/21 07:45:46;;;;;;;51.03;27.70;;;;;;;-2.87;71.37;100549.13;1703345;83;21125;-85
2021/01/21 07:48:24;;;;;;;51.37;28.43;;;;;;;-2.81;71.42;100544.81;1719079;82;21354;-86
2021/01/21 07:50:58;;;;;;;53.53;28.87;;;;;;;-2.85;71.46;100551.16;1722057;81;21334;-85
2021/01/21 07:53:27;;;;;;;49.47;31.27;;;;;;;-2.81;71.37;100549.55;1661123;83;21277;-87
2021/01/21 07:55:59;;;;;;;50.97;30.30;;;;;;;-2.78;71.44;100549.37;1724718;82;21518;-89
2021/01/21 07:58:30;;;;;;;56.57;31.23;;;;;;;-2.72;71.38;100539.02;1713347;81;21267;-89
2021/01/21 08:01:01;;;;;;;50.10;29.43;;;;;;;-2.66;71.25;100536.00;1698735;82;21231;-91
2021/01/21 08:03:41;;;;;;;48.87;28.63;;;;;;;-2.62;71.22;100527.06;1692160;83;21146;-89
2021/01/21 08:06:13;;;;;;;48.07;27.97;;;;;;;-2.53;71.02;100533.92;1689724;83;21192;-89
2021/01/21 08:08:45;;;;;;;44.70;26.03;;;;;;;-2.48;70.97;100533.16;1695318;83;21218;-88
2021/01/21 08:11:19;;;;;;;45.33;26.80;;;;;;;-2.41;70.72;100538.33;1682209;84;21204;-87
2021/01/21 08:13:49;;;;;;;52.83;29.63;;;;;;;-2.40;70.65;100526.96;1628270;86;21203;-87
2021/01/21 08:16:17;;;;;;;51.33;31.83;;;;;;;-2.37;70.63;100536.73;1671740;85;21193;-88
2021/01/21 08:18:48;;;;;;;48.07;29.10;;;;;;;-2.31;70.48;100542.03;1639594;86;21208;-88
2021/01/21 08:21:22;;;;;;;;;;;;;;;-2.35;70.54;100546.61;1674419;84;21204;-89
2021/01/21 08:24:01;;;;;;;48.70;27.80;;;;;;;-2.26;70.31;100547.80;1669421;84;20177;-88
2021/01/21 08:26:31;;;;;;;52.83;30.97;;;;;;;-2.33;70.58;100549.13;1685540;84;21184;-87
2021/01/21 08:29:00;;;;;;;47.30;24.50;;;;;;;-2.22;70.54;100545.34;1685088;84;21186;-89
2021/01/21 08:31:41;;;;;;;49.50;28.37;;;;;;;-2.17;70.44;100544.58;1685502;85;21202;-87
2021/01/21 08:34:16;;;;;;;53.67;30.30;;;;;;;-2.03;70.29;100536.30;1678169;84;21435;-87
2021/01/21 08:36:45;;;;;;;49.70;28.43;;;;;;;-1.95;69.92;100543.14;1721331;82;21461;-86
2021/01/21 08:39:13;;;;;;;;;;;;;;;-1.91;69.79;100544.61;1697151;84;21185;-89
2021/01/21 08:41:43;;;;;;;54.03;29.03;;;;;;;-1.90;69.69;100538.45;1711749;84;20225;-87
2021/01/21 08:44:16;;;;;;;50.07;27.97;;;;;;;-1.91;69.85;100541.99;1709060;82;21192;-87
2021/01/21 08:46:57;;;;;;;49.77;28.97;;;;;;;-1.89;69.67;100543.20;1681282;84;21192;-86
2021/01/21 08:49:24;;;;;;;47.13;26.63;;;;;;;-1.84;69.80;100541.95;1705861;83;21156;-85
2021/01/21 08:52:08;;;;;;;51.17;29.77;;;;;;;-1.82;69.70;100537.94;1708122;84;21192;-86
2021/01/21 08:54:37;;;;;;;48.10;27.57;;;;;;;-1.69;69.49;100530.10;1705600;84;21168;-89
2021/01/21 08:57:10;;;;;;;45.57;27.23;;;;;;;-1.61;69.44;100527.31;1686002;83;21159;-89
2021/01/21 08:59:39;;;;;;;55.23;31.47;;;;;;;-1.48;69.30;100529.09;1695523;84;21301;-89
2021/01/21 09:02:07;;;;;;;43.10;24.30;;;;;;;-1.37;69.05;100532.63;1693608;83;21136;-85
2021/01/21 09:04:36;;;;;;;52.83;29.50;;;;;;;-1.24;68.44;100535.71;1700863;83;21328;-89
2021/01/21 09:07:24;;;;;;;47.30;29.43;;;;;;;-1.21;68.30;100534.17;1697187;83;21743;-85
2021/01/21 09:09:52;;;;;;;46.27;27.50;;;;;;;-1.18;68.04;100525.64;1701908;83;21130;-86
2021/01/21 09:12:24;;;;;;;47.17;27.83;;;;;;;-1.22;68.05;100527.28;1680815;84;21077;-88
2021/01/21 09:15:11;;;;;;;52.33;31.57;;;;;;;-1.19;68.23;100529.66;1790610;78;22446;-88
2021/01/21 09:17:41;;;;;;;55.67;29.43;;;;;;;-1.17;68.18;100531.70;1770997;79;21155;-86
2021/01/21 09:20:28;;;;;;;49.10;32.33;;;;;;;-1.15;67.94;100527.67;1779559;79;21116;-86
2021/01/21 09:23:15;;;;;;;50.87;29.33;;;;;;;-1.21;68.27;100520.61;1757109;79;21493;-87
2021/01/21 09:25:43;;;;;;;50.13;28.80;;;;;;;-1.18;68.05;100517.79;1717508;82;21122;-86
2021/01/21 09:28:13;;;;;;;50.17;30.23;;;;;;;-1.14;68.12;100521.03;1694291;82;21308;-89
2021/01/21 09:30:42;;;;;;;46.47;26.53;;;;;;;-1.13;68.34;100518.79;1715054;82;21286;-88
2021/01/21 09:33:14;;;;;;;50.57;33.03;;;;;;;-1.11;68.15;100512.98;1715595;81;21202;-91
2021/01/21 09:36:05;;;;;;;53.57;30.13;;;;;;;-1.01;68.08;100512.67;1737248;81;21136;-94
2021/01/21 09:38:37;;;;;;;54.10;30.48;;;;;;;-1.01;68.04;100507.44;1732691;81;21151;-92
2021/01/21 09:41:17;;;;;;;47.87;28.40;;;;;;;-0.96;67.82;100508.89;1740259;81;21148;-92
2021/01/21 09:44:08;;;;;;;48.27;29.83;;;;;;;-0.88;67.92;100498.24;1732528;81;21092;-90
2021/01/21 09:46:35;;;;;;;50.37;29.90;;;;;;;-0.83;67.62;100513.59;1705401;83;21212;-91
2021/01/21 09:49:05;;;;;;;54.03;30.67;;;;;;;-0.76;67.59;100504.36;1702872;83;21303;-93
2021/01/21 09:51:34;;;;;;;50.67;29.17;;;;;;;-0.63;67.18;100505.63;1709175;83;21200;-90
2021/01/21 09:54:02;;;;;;;45.97;29.07;;;;;;;-0.58;66.92;100496.97;1653331;83;21192;-90
2021/01/21 09:56:30;;;;;;;49.43;31.10;;;;;;;-0.44;66.78;100509.03;1668938;84;21103;-89
2021/01/21 09:59:13;;;;;;;50.10;28.40;;;;;;;-0.36;66.45;100506.67;1684858;84;21096;-94
2021/01/21 10:01:47;;;;;;;52.33;31.43;;;;;;;-0.35;66.17;100512.77;1669905;81;21200;-93
2021/01/21 10:04:21;;;;;;;45.53;27.63;;;;;;;-0.34;66.20;100503.94;1681849;82;21507;-89
2021/01/21 10:06:59;;;;;;;46.03;29.67;;;;;;;-0.35;66.16;100501.80;1686410;84;21183;-94
2021/01/21 10:09:35;;;;;;;42.63;26.63;;;;;;;-0.42;66.34;100488.31;1687062;84;21180;-90
2021/01/21 10:12:54;;;;;;;45.27;28.33;;;;;;;-0.43;66.36;100484.05;1702057;84;21160;-88
2021/01/21 10:15:25;;;;;;;48.67;31.83;;;;;;;-0.43;66.50;100485.35;1708688;84;21315;-90
2021/01/21 10:17:58;;;;;;;53.60;31.40;;;;;;;-0.49;66.51;100483.65;1709926;79;21593;-82
2021/01/21 10:21:35;;;;;;;46.30;28.10;;;;;;;-0.38;66.49;100482.86;1693306;79;21360;-82
2021/01/21 10:24:27;;;;;;;48.77;29.37;;;;;;;-0.30;66.33;100479.19;1701716;80;21500;-91
2021/01/21 10:27:12;;;;;;;42.53;27.20;;;;;;;-0.29;66.21;100475.15;1708195;79;21148;-85
2021/01/21 10:29:40;;;;;;;57.80;34.10;;;;;;;-0.20;66.31;100476.25;1707498;79;21214;-85
2021/01/21 10:32:12;;;;;;;50.07;30.67;;;;;;;-0.14;66.02;100476.27;1706295;79;21124;-82
2021/01/21 10:35:05;;;;;;;53.00;31.70;;;;;;;-0.38;65.85;100415.59;1702728;79;21059;-86
2021/01/21 10:37:32;;;;;;;47.63;30.83;;;;;;;-0.10;65.85;100465.91;1693451;82;21284;-88
2021/01/21 10:40:04;;;;;;;46.30;28.37;;;;;;;-0.13;65.87;100476.61;1683538;84;21225;-91
2021/01/21 10:42:43;;;;;;;44.70;29.03;;;;;;;-0.18;66.14;100463.05;1719914;82;21893;-90
2021/01/21 10:45:17;;;;;;;46.83;30.20;;;;;;;-0.18;66.20;100465.18;1701256;84;21217;-89
2021/01/21 10:47:55;;;;;;;44.00;27.87;;;;;;;-0.16;66.37;100460.66;1679332;85;21682;-89
2021/01/21 10:50:26;;;;;;;49.17;30.33;;;;;;;-0.13;66.22;100451.72;1701634;84;21169;-89
2021/01/21 10:53:01;;;;;;;45.87;28.90;;;;;;;-0.42;66.16;100404.99;1708508;84;21178;-89
2021/01/21 10:55:35;;;;;;;48.83;28.80;;;;;;;-0.10;66.15;100448.88;1697901;84;21061;-88
2021/01/21 10:58:06;;;;;;;41.13;27.67;;;;;;;-0.13;66.21;100454.34;1710115;84;21164;-90
2021/01/21 11:00:35;;;;;;;40.53;27.27;;;;;;;-0.15;66.23;100439.21;1712034;83;21049;-90
2021/01/21 11:03:09;;;;;;;44.73;28.40;;;;;;;-0.08;66.17;100443.04;1734626;81;21133;-85
2021/01/21 11:05:46;;;;;;;44.90;29.10;;;;;;;-0.08;66.35;100439.11;1730977;83;21651;-91
2021/01/21 11:08:14;;;;;;;43.17;28.53;;;;;;;-0.08;66.13;100442.55;1709281;84;21711;-89
2021/01/21 11:10:42;;;;;;;47.07;27.20;;;;;;;-0.03;66.30;100442.22;1708070;83;21662;-87
2021/01/21 11:13:17;;;;;;;53.57;30.57;;;;;;;-0.04;66.12;100430.05;1690308;82;21146;-87
2021/01/21 11:15:48;;;;;;;42.47;27.57;;;;;;;-0.03;66.20;100438.29;1707216;83;21296;-90
2021/01/21 11:18:15;;;;;;;47.47;28.17;;;;;;;-0.08;66.33;100449.11;1682295;83;21197;-89
2021/01/21 11:20:43;;;;;;;42.97;26.77;;;;;;;-0.01;66.47;100428.03;1687502;83;21865;-89
2021/01/21 11:23:11;;;;;;;41.30;27.13;;;;;;;-0.05;66.38;100420.55;1716095;81;21070;-90
2021/01/21 11:25:38;;;;;;;49.00;28.03;;;;;;;0.04;66.43;100423.77;1709497;81;21274;-88
2021/01/21 11:28:08;;;;;;;47.90;28.37;;;;;;;0.04;66.50;100429.02;1715556;81;21649;-87
2021/01/21 11:30:39;;;;;;;49.23;30.73;;;;;;;0.06;66.27;100419.23;1689582;83;21297;-88
2021/01/21 11:33:07;;;;;;;49.17;28.43;;;;;;;0.12;66.41;100413.52;1725413;81;21180;-88
2021/01/21 11:35:40;;;;;;;41.97;26.60;;;;;;;0.11;66.31;100422.31;1697720;82;22025;-91
2021/01/21 11:38:07;;;;;;;44.30;27.80;;;;;;;0.12;66.20;100419.24;1671809;83;21153;-88
2021/01/21 11:40:36;;;;;;;46.13;29.93;;;;;;;0.10;66.12;100422.46;1720433;82;21131;-87
2021/01/21 11:43:21;;;;;;;44.20;27.00;;;;;;;0.12;66.36;100421.38;1685741;83;21214;-88
2021/01/21 11:45:56;;;;;;;47.97;29.17;;;;;;;0.13;66.44;100418.27;1682484;83;21226;-89
2021/01/21 11:48:31;;;;;;;44.90;30.17;;;;;;;0.16;66.37;100420.67;1699172;83;21136;-89
2021/01/21 11:51:25;;;;;;;43.70;28.42;;;;;;;0.21;66.26;100422.92;1721542;81;21141;-89
2021/01/21 11:54:16;;;;;;;44.17;27.97;;;;;;;0.23;65.96;100418.39;1689296;82;21306;-88
2021/01/21 11:57:19;;;;;;;46.83;31.03;;;;;;;0.25;65.93;100423.89;1693417;83;21267;-87
2021/01/21 11:59:55;;;;;;;40.43;26.10;;;;;;;0.23;66.19;100417.94;1680420;84;21222;-88
2021/01/21 12:02:31;;;;;;;44.70;30.53;;;;;;;0.23;66.02;100417.94;1711591;83;21616;-87
2021/01/21 12:05:00;;;;;;;42.77;28.57;;;;;;;-0.56;65.96;100278.23;1709280;80;21198;-88